createdAt,value
2023-02-02T01:59:24.335Z,98814.74
2023-02-02T02:01:52.214Z,98800.15
2023-02-02T02:04:19.276Z,98800.77
2023-02-02T02:06:47.740Z,98797.83
2023-02-02T02:09:14.832Z,98794.81
2023-02-02T02:11:41.635Z,98788.31
2023-02-02T02:14:28.762Z,98787.16
2023-02-02T02:17:05.040Z,98783.61
2023-02-02T02:20:13.936Z,98787.17
2023-02-02T02:23:18.433Z,98789.15
2023-02-02T02:26:33.493Z,98789.76
2023-02-02T02:29:38.443Z,98794.63
2023-02-02T02:32:14.823Z,98792.73
2023-02-02T02:35:06.766Z,98794.73
2023-02-02T02:37:39.433Z,98797.08
2023-02-02T02:40:35.743Z,98798.46
2023-02-02T02:43:08.988Z,98800.92
2023-02-02T02:45:37.825Z,98804.96
2023-02-02T02:48:06.389Z,98804.26
2023-02-02T02:50:38.543Z,98806.77
2023-02-02T02:53:21.562Z,98808.38
2023-02-02T02:55:56.575Z,98811.45
2023-02-02T02:58:24.593Z,98808.90
2023-02-02T03:00:59.528Z,98809.52
2023-02-02T03:03:37.441Z,98808.73
2023-02-02T03:06:11.309Z,98809.46
2023-02-02T03:08:46.576Z,98813.70
2023-02-02T03:11:14.930Z,98813.00
2023-02-02T03:13:43.128Z,98816.88
2023-02-02T03:16:11.424Z,98818.11
2023-02-02T03:18:39.640Z,98817.92
2023-02-02T03:21:07.760Z,98813.94
2023-02-02T03:23:36.070Z,98815.38
2023-02-02T03:26:04.563Z,98815.63
2023-02-02T03:28:33.221Z,98817.59
2023-02-02T03:31:02.049Z,98817.06
2023-02-02T03:33:31.291Z,98816.40
2023-02-02T03:35:59.441Z,98817.31
2023-02-02T03:38:27.462Z,98823.30
2023-02-02T03:40:55.808Z,98822.20
2023-02-02T03:43:24.271Z,98825.55
2023-02-02T03:45:57.302Z,98824.98
2023-02-02T03:48:25.868Z,98824.58
2023-02-02T03:50:54.119Z,98828.29
2023-02-02T03:53:22.945Z,98821.60
2023-02-02T03:55:51.177Z,98815.40
2023-02-02T03:58:22.441Z,98814.45
2023-02-02T04:00:50.752Z,98817.98
2023-02-02T04:03:18.901Z,98817.80
2023-02-02T04:05:50.831Z,98816.00
2023-02-02T04:08:18.851Z,98820.77
2023-02-02T04:10:47.336Z,98821.14
2023-02-02T04:13:15.818Z,98828.92
2023-02-02T04:15:43.973Z,98828.73
2023-02-02T04:18:12.356Z,98832.59
2023-02-02T04:20:41.396Z,98827.45
2023-02-02T04:23:09.605Z,98826.91
2023-02-02T04:25:38.095Z,98830.08
2023-02-02T04:28:06.219Z,98831.68
2023-02-02T04:30:35.347Z,98831.05
2023-02-02T04:33:04.053Z,98834.96
2023-02-02T04:35:32.187Z,98833.91
2023-02-02T04:38:00.745Z,98837.48
2023-02-02T04:40:29.188Z,98838.80
2023-02-02T04:42:58.381Z,98837.91
2023-02-02T04:45:26.737Z,98835.06
2023-02-02T04:47:55.095Z,98835.42
2023-02-02T04:50:23.364Z,98838.60
2023-02-02T04:52:51.402Z,98838.94
2023-02-02T04:55:21.081Z,98840.75
2023-02-02T04:57:49.212Z,98845.24
2023-02-02T05:00:17.455Z,98846.58
2023-02-02T05:02:46.512Z,98845.39
2023-02-02T05:05:14.673Z,98850.73
2023-02-02T05:07:43.112Z,98850.94
2023-02-02T05:10:15.339Z,98853.23
2023-02-02T05:12:45.940Z,98851.97
2023-02-02T05:15:14.137Z,98850.88
2023-02-02T05:17:42.947Z,98845.90
2023-02-02T05:20:11.957Z,98848.52
2023-02-02T05:22:40.640Z,98850.57
2023-02-02T05:25:09.696Z,98850.70
2023-02-02T05:27:37.827Z,98853.10
2023-02-02T05:30:06.983Z,98857.80
2023-02-02T05:32:35.242Z,98858.61
2023-02-02T05:35:03.380Z,98861.02
2023-02-02T05:37:32.034Z,98866.50
2023-02-02T05:40:00.185Z,98870.09
2023-02-02T05:42:28.666Z,98867.54
2023-02-02T05:44:57.460Z,98872.99
2023-02-02T05:47:25.511Z,98876.69
2023-02-02T05:49:53.943Z,98871.70
2023-02-02T05:52:22.595Z,98871.29
2023-02-02T05:54:51.062Z,98870.92
2023-02-02T05:57:19.098Z,98871.46
2023-02-02T05:59:47.532Z,98874.52
2023-02-02T06:02:15.578Z,98880.18
2023-02-02T06:04:43.631Z,98883.23
2023-02-02T06:07:12.654Z,98884.68
2023-02-02T06:09:40.682Z,98890.71
2023-02-02T06:12:09.023Z,98894.77
2023-02-02T06:14:37.073Z,98892.63
2023-02-02T06:17:06.851Z,98901.56
2023-02-02T06:19:35.695Z,98903.48
2023-02-02T06:22:03.976Z,98906.80
2023-02-02T06:24:32.801Z,98904.79
2023-02-02T06:27:00.945Z,98907.95
2023-02-02T06:29:29.177Z,98909.73
2023-02-02T06:31:57.388Z,98909.76
2023-02-02T06:34:25.755Z,98909.83
2023-02-02T06:36:54.256Z,98916.20
2023-02-02T06:39:22.330Z,98915.48
2023-02-02T06:41:52.161Z,98914.12
2023-02-02T06:44:21.190Z,98911.82
2023-02-02T06:46:50.132Z,98911.81
2023-02-02T06:49:18.166Z,98916.16
2023-02-02T06:51:49.692Z,98915.81
2023-02-02T06:54:17.832Z,98920.70
2023-02-02T06:56:45.964Z,98920.48
2023-02-02T06:59:14.528Z,98922.03
2023-02-02T07:01:43.111Z,98924.63
2023-02-02T07:04:11.347Z,98922.27
2023-02-02T07:06:40.464Z,98926.40
2023-02-02T07:09:08.527Z,98928.04
2023-02-02T07:11:39.757Z,98926.33
2023-02-02T07:14:11.232Z,98925.29
2023-02-02T07:16:39.754Z,98926.94
2023-02-02T07:19:07.913Z,98926.71
2023-02-02T07:21:38.932Z,98930.54
2023-02-02T07:24:07.724Z,98931.16
2023-02-02T07:26:36.744Z,98933.60
2023-02-02T07:29:05.556Z,98933.88
2023-02-02T07:31:36.809Z,98933.27
2023-02-02T07:34:05.336Z,98934.11
2023-02-02T07:36:34.120Z,98935.11
2023-02-02T07:39:04.984Z,98930.82
2023-02-02T07:41:36.670Z,98930.17
2023-02-02T07:44:05.197Z,98927.24
2023-02-02T07:46:33.447Z,98924.33
2023-02-02T10:14:35.345Z,98941.34
2023-02-02T10:17:22.983Z,98921.80
2023-02-02T10:19:50.125Z,98925.42
2023-02-02T10:22:19.591Z,98929.34
2023-02-02T10:24:46.485Z,98927.81
2023-02-02T10:27:15.115Z,98925.11
2023-02-02T10:30:00.315Z,98924.38
2023-02-02T10:33:05.455Z,98923.20
2023-02-02T10:35:39.702Z,98922.40
2023-02-02T10:38:43.109Z,98924.51
2023-02-02T10:41:30.183Z,98928.20
2023-02-02T10:44:06.659Z,98926.51
2023-02-02T10:46:50.726Z,98927.09
2023-02-02T10:49:28.283Z,98925.64
2023-02-02T10:52:11.061Z,98924.47
2023-02-02T10:55:03.634Z,98926.38
2023-02-02T10:57:42.227Z,98928.00
2023-02-02T11:00:23.110Z,98926.97
2023-02-02T11:02:50.840Z,98928.52
2023-02-02T11:05:41.959Z,98930.23
2023-02-02T11:08:14.035Z,98929.89
2023-02-02T11:10:42.791Z,98931.12
2023-02-02T11:13:14.063Z,98932.88
2023-02-02T11:15:40.897Z,98928.41
2023-02-02T11:18:26.476Z,98931.58
2023-02-02T11:20:53.548Z,98930.31
2023-02-02T11:23:20.531Z,98930.20
2023-02-02T11:26:00.252Z,98930.75
2023-02-02T11:28:29.809Z,98931.05
2023-02-02T11:30:56.752Z,98934.20
2023-02-02T11:33:27.938Z,98928.72
2023-02-02T11:36:05.645Z,98929.67
2023-02-02T11:38:34.404Z,98926.21
2023-02-02T11:41:06.472Z,98926.66
2023-02-02T11:43:40.829Z,98925.23
2023-02-02T11:46:17.190Z,98928.48
2023-02-02T11:48:58.595Z,98930.28
2023-02-02T11:51:26.347Z,98930.27
2023-02-02T11:54:28.695Z,98929.42
2023-02-02T11:56:57.458Z,98932.31
2023-02-02T11:59:29.998Z,98933.66
2023-02-02T12:02:12.464Z,98940.27
2023-02-02T12:04:40.835Z,98934.98
2023-02-02T12:07:37.166Z,98935.59
2023-02-02T12:10:27.803Z,98936.73
2023-02-02T12:13:09.550Z,98936.43
2023-02-02T12:15:49.404Z,98937.74
2023-02-02T12:18:22.747Z,98941.25
2023-02-02T12:21:02.149Z,98942.75
2023-02-02T12:23:42.565Z,98946.58
2023-02-02T12:26:33.658Z,98943.87
2023-02-02T12:29:25.763Z,98944.29
2023-02-02T12:32:17.487Z,98943.48
2023-02-02T12:34:50.784Z,98945.69
2023-02-02T12:37:32.066Z,98945.42
2023-02-02T12:40:20.630Z,98948.29
2023-02-02T12:43:03.862Z,98948.98
2023-02-02T12:45:49.966Z,98946.44
2023-02-02T12:48:35.130Z,98948.67
2023-02-02T12:51:41.666Z,98948.81
2023-02-02T12:54:47.190Z,98948.25
2023-02-02T12:57:21.890Z,98953.71
2023-02-02T12:59:48.521Z,98952.23
2023-02-02T13:02:30.596Z,98954.33
2023-02-02T13:05:02.152Z,98948.30
2023-02-02T13:07:32.597Z,98949.58
2023-02-02T13:10:16.851Z,98948.61
2023-02-02T13:12:48.311Z,98950.46
2023-02-02T13:15:18.857Z,98953.39
2023-02-02T13:17:58.817Z,98956.64
2023-02-02T13:20:41.905Z,98954.91
2023-02-02T13:23:15.149Z,98951.79
2023-02-02T13:25:48.300Z,98949.63
2023-02-02T13:28:46.071Z,98947.00
2023-02-02T13:31:20.051Z,98948.14
2023-02-02T13:33:49.584Z,98948.23
2023-02-02T13:36:25.359Z,98948.70
2023-02-02T13:38:57.035Z,98950.64
2023-02-02T13:41:23.867Z,98948.56
2023-02-02T13:44:14.675Z,98949.85
2023-02-02T13:46:47.415Z,98950.98
2023-02-02T13:49:32.006Z,98953.48
2023-02-02T13:52:20.045Z,98952.65
2023-02-02T13:55:24.902Z,98954.96
2023-02-02T13:58:15.729Z,98959.95
2023-02-02T14:00:47.143Z,98959.16
2023-02-02T14:03:20.039Z,98960.98
2023-02-02T14:06:00.936Z,98961.94
2023-02-02T14:08:27.660Z,98963.78
2023-02-02T14:10:54.389Z,98965.13
2023-02-02T14:14:03.974Z,98969.27
2023-02-02T14:16:30.812Z,98970.56
2023-02-02T14:19:02.191Z,98978.04
2023-02-02T14:21:32.236Z,98978.77
2023-02-02T14:24:21.741Z,98982.73
2023-02-02T14:26:50.467Z,98986.91
2023-02-02T14:29:30.773Z,98984.59
2023-02-02T14:32:00.991Z,98984.42
2023-02-02T14:34:38.741Z,98991.23
2023-02-02T14:37:13.547Z,98996.86
2023-02-02T14:39:52.127Z,98999.08
2023-02-02T14:43:00.191Z,99000.63
2023-02-02T14:45:40.205Z,99001.80
2023-02-02T14:48:06.937Z,99005.85
2023-02-02T14:50:42.123Z,99007.91
2023-02-02T14:53:12.648Z,99013.90
2023-02-02T14:56:09.621Z,99012.95
2023-02-02T14:58:40.516Z,99013.89
2023-02-02T15:01:22.446Z,99017.31
2023-02-02T15:04:15.155Z,99022.02
2023-02-02T15:06:42.594Z,99023.20
2023-02-02T15:09:20.002Z,99023.77
2023-02-02T15:12:00.868Z,99028.13
2023-02-02T15:14:43.774Z,99027.23
2023-02-02T15:17:35.737Z,99029.27
2023-02-02T15:20:40.466Z,99028.55
2023-02-02T15:23:18.560Z,99030.81
2023-02-02T15:26:00.561Z,99032.67
2023-02-02T15:28:43.894Z,99036.08
2023-02-02T15:31:43.711Z,99041.24
2023-02-02T15:34:21.277Z,99045.05
2023-02-02T15:36:50.941Z,99040.06
2023-02-02T15:39:37.980Z,99045.19
2023-02-02T15:42:26.772Z,99046.72
2023-02-02T15:44:53.362Z,99047.59
2023-02-02T15:47:25.927Z,99053.48
2023-02-02T15:49:52.546Z,99053.96
2023-02-02T15:52:32.106Z,99061.13
2023-02-02T18:07:07.096Z,99185.07
2023-02-02T18:09:34.017Z,99168.59
2023-02-02T18:12:00.878Z,99165.80
2023-02-02T18:14:28.471Z,99163.52
2023-02-02T18:16:55.640Z,99167.29
2023-02-02T18:19:22.360Z,99168.27
2023-02-02T18:21:49.378Z,99165.77
2023-02-02T18:24:16.648Z,99171.31
2023-02-02T18:26:43.725Z,99170.86
2023-02-02T18:29:10.634Z,99174.53
2023-02-02T18:31:39.103Z,99175.52
2023-02-02T18:34:07.085Z,99179.14
2023-02-02T18:36:35.610Z,99180.59
2023-02-02T18:39:02.995Z,99182.58
2023-02-02T18:41:30.905Z,99187.29
2023-02-02T18:43:58.173Z,99188.82
2023-02-02T18:46:26.222Z,99193.19
2023-02-02T18:48:53.207Z,99194.61
2023-02-02T18:51:21.380Z,99193.54
2023-02-02T18:53:48.134Z,99197.77
2023-02-02T18:56:15.287Z,99196.65
2023-02-02T18:58:42.442Z,99192.16
2023-02-02T19:01:10.800Z,99191.73
2023-02-02T19:03:38.788Z,99192.94
2023-02-02T19:06:25.554Z,99197.84
2023-02-02T19:08:53.114Z,99200.83
2023-02-02T19:11:21.733Z,99196.42
2023-02-02T19:13:48.749Z,99198.42
2023-02-02T19:16:17.465Z,99199.81
2023-02-02T19:18:45.818Z,99203.65
2023-02-02T19:21:12.717Z,99198.65
2023-02-02T19:23:40.223Z,99202.47
2023-02-02T19:26:22.277Z,99204.40
2023-02-02T19:28:49.976Z,99205.86
2023-02-02T19:31:17.026Z,99210.84
2023-02-02T19:33:50.510Z,99209.83
2023-02-02T19:36:24.616Z,99213.89
2023-02-02T19:38:52.737Z,99215.83
2023-02-02T19:41:21.450Z,99218.02
2023-02-02T19:43:49.070Z,99217.77
2023-02-02T19:46:22.623Z,99220.05
2023-02-02T19:48:52.246Z,99217.91
2023-02-02T19:51:31.519Z,99218.45
2023-02-02T19:53:59.178Z,99216.91
2023-02-02T19:56:27.013Z,99213.77
2023-02-02T19:58:54.201Z,99215.73
2023-02-02T20:01:21.256Z,99221.58
2023-02-02T20:03:50.453Z,99218.20
2023-02-02T20:06:25.881Z,99218.67
2023-02-02T20:08:52.866Z,99221.09
2023-02-02T20:11:36.831Z,99217.73
2023-02-02T20:14:17.783Z,99217.40
2023-02-02T20:17:02.024Z,99218.13
2023-02-02T20:19:33.573Z,99220.09
2023-02-02T20:22:01.441Z,99221.71
2023-02-02T20:24:39.718Z,99220.53
2023-02-02T20:27:22.675Z,99222.26
2023-02-02T20:29:51.079Z,99225.70
2023-02-02T20:32:20.884Z,99227.40
2023-02-02T20:34:49.199Z,99231.82
2023-02-02T20:37:20.800Z,99233.98
2023-02-02T20:40:01.549Z,99233.84
2023-02-02T20:42:29.336Z,99236.49
2023-02-02T20:44:58.177Z,99233.37
2023-02-02T20:47:25.074Z,99231.13
2023-02-02T20:49:52.018Z,99235.70
2023-02-02T20:52:23.364Z,99236.55
2023-02-02T20:54:50.928Z,99238.79
2023-02-02T20:57:18.321Z,99238.28
2023-02-02T20:59:45.441Z,99237.95
2023-02-02T21:02:18.054Z,99236.05
2023-02-02T21:04:48.900Z,99238.73
2023-02-02T21:07:16.647Z,99240.02
2023-02-02T21:09:44.514Z,99241.64
2023-02-02T21:12:11.264Z,99246.58
2023-02-02T21:14:39.008Z,99245.67
2023-02-02T21:17:14.805Z,99249.87
2023-02-02T21:19:42.791Z,99251.77
2023-02-02T21:22:10.549Z,99257.20
2023-02-02T21:24:37.866Z,99261.28
2023-02-02T21:27:04.885Z,99258.29
2023-02-02T21:29:32.382Z,99258.11
2023-02-02T21:32:01.735Z,99261.65
2023-02-02T21:34:29.015Z,99266.45
2023-02-02T21:36:57.375Z,99268.73
2023-02-02T21:39:36.733Z,99268.33
2023-02-02T21:42:06.853Z,99268.82
2023-02-02T21:44:40.490Z,99269.30
2023-02-02T21:47:25.628Z,99274.02
2023-02-02T21:49:54.959Z,99277.37
2023-02-02T22:41:08.541Z,99335.68
2023-02-02T22:43:36.402Z,99321.94
2023-02-02T22:46:03.172Z,99320.16
2023-02-02T22:48:30.183Z,99324.80
2023-02-02T22:50:56.956Z,99326.50
2023-02-02T22:53:23.675Z,99324.35
2023-02-02T22:55:55.975Z,99324.70
2023-02-02T22:58:25.063Z,99328.11
2023-02-02T23:00:51.848Z,99328.54
2023-02-02T23:03:18.724Z,99325.45
2023-02-02T23:05:45.553Z,99325.73
2023-02-02T23:08:12.430Z,99328.13
2023-02-02T23:10:59.149Z,99324.89
2023-02-02T23:13:26.557Z,99325.30
2023-02-02T23:15:53.500Z,99325.04
2023-02-02T23:18:20.364Z,99324.80
2023-02-02T23:20:48.240Z,99326.56
2023-02-02T23:23:15.169Z,99325.16
2023-02-02T23:25:42.031Z,99325.71
2023-02-02T23:28:09.938Z,99324.66
2023-02-02T23:30:37.416Z,99323.61
2023-02-02T23:33:04.199Z,99323.62
2023-02-02T23:35:30.858Z,99321.80
2023-02-02T23:37:57.580Z,99326.77
2023-02-02T23:40:24.916Z,99329.80
2023-02-02T23:42:52.008Z,99331.22
2023-02-02T23:45:19.321Z,99330.20
2023-02-02T23:47:46.069Z,99329.73
2023-02-02T23:50:13.228Z,99331.55
2023-02-02T23:52:40.313Z,99332.13
2023-02-02T23:55:08.184Z,99331.46
2023-02-02T23:57:36.014Z,99329.88
